Time;durP1;ratioP1;P1;durP2;ratioP2;P2;SDS_P1;SDS_P2;PMS_P1;PMS_P2;Temp;Humidity;BMP_temperature;BMP_pressure;BME280_temperature;BME280_humidity;BME280_pressure;Samples;Min_cycle;Max_cycle;Signal;HPM_P1;HPM_P2
2022/05/11 00:00:35;;;;;;;5.32;4.40;;;17.50;99.90;;;;;;6093872;23;19999;-81
2022/05/11 00:03:00;;;;;;;6.72;5.05;;;17.50;99.90;;;;;;6093599;23;20009;-81
2022/05/11 00:05:26;;;;;;;5.10;4.57;;;17.50;99.90;;;;;;6067887;23;20032;-81
2022/05/11 00:07:52;;;;;;;4.60;4.20;;;17.50;99.90;;;;;;6093646;23;20010;-81
2022/05/11 00:10:18;;;;;;;5.85;4.93;;;17.50;99.90;;;;;;6093933;23;20002;-81
2022/05/11 00:12:46;;;;;;;5.85;4.93;;;17.50;99.90;;;;;;6068029;23;20029;-81
2022/05/11 00:15:16;;;;;;;5.53;4.70;;;17.50;99.90;;;;;;6093912;23;20013;-81
2022/05/11 00:17:41;;;;;;;5.60;4.85;;;17.50;99.90;;;;;;6093553;23;20011;-81
2022/05/11 00:20:09;;;;;;;5.85;4.90;;;17.50;99.90;;;;;;6093965;23;20355;-81
2022/05/11 00:22:36;;;;;;;6.95;4.97;;;17.50;99.90;;;;;;6068059;23;20040;-81
2022/05/11 00:25:05;;;;;;;5.40;4.90;;;17.40;99.90;;;;;;6067834;23;20097;-81
2022/05/11 00:27:31;;;;;;;6.10;4.68;;;17.40;99.90;;;;;;6068001;23;20003;-81
2022/05/11 00:29:57;;;;;;;7.05;5.10;;;17.40;99.90;;;;;;6067999;23;20097;-81
2022/05/11 00:32:25;;;;;;;7.68;5.40;;;17.40;99.90;;;;;;6067938;23;20006;-81
2022/05/11 00:34:51;;;;;;;9.57;5.07;;;17.40;99.90;;;;;;6093492;23;20030;-81
2022/05/11 00:37:18;;;;;;;5.32;4.82;;;17.40;99.90;;;;;;6067990;23;20033;-81
2022/05/11 00:39:44;;;;;;;7.40;4.95;;;17.40;99.90;;;;;;6093492;23;20011;-81
2022/05/11 00:42:10;;;;;;;6.93;5.20;;;17.40;99.90;;;;;;6067977;23;20469;-81
2022/05/11 00:44:36;;;;;;;7.07;4.60;;;17.40;99.90;;;;;;6067864;23;20418;-80
2022/05/11 00:47:11;;;;;;;5.57;4.95;;;17.40;99.90;;;;;;6067892;23;20045;-81
2022/05/11 00:49:45;;;;;;;7.75;5.40;;;17.40;99.90;;;;;;6093483;23;19995;-81
2022/05/11 00:52:18;;;;;;;7.85;5.57;;;17.40;99.90;;;;;;6067959;23;20481;-81
2022/05/11 00:55:11;;;;;;;6.68;5.10;;;17.40;99.90;;;;;;6067771;23;20006;-81
2022/05/11 00:57:56;;;;;;;6.30;4.97;;;17.40;99.90;;;;;;6073833;23;20019;-81
2022/05/11 01:00:23;;;;;;;7.03;5.25;;;17.40;99.90;;;;;;6093847;23;20017;-81
2022/05/11 01:02:55;;;;;;;9.00;5.15;;;17.30;99.90;;;;;;6067893;23;20453;-81
2022/05/11 01:05:22;;;;;;;7.47;5.20;;;17.30;99.90;;;;;;6093707;23;20059;-81
2022/05/11 01:07:49;;;;;;;9.45;4.97;;;17.30;99.90;;;;;;6093397;23;19999;-81
2022/05/11 01:10:15;;;;;;;5.78;5.15;;;17.30;99.90;;;;;;6093555;23;20059;-81
2022/05/11 01:12:46;;;;;;;5.13;4.60;;;17.30;99.90;;;;;;6067790;23;20038;-81
2022/05/11 01:15:16;;;;;;;6.53;5.15;;;17.30;99.90;;;;;;6093840;23;20430;-81
2022/05/11 01:17:41;;;;;;;7.30;5.00;;;17.30;99.90;;;;;;6093423;23;20081;-81
2022/05/11 01:20:12;;;;;;;6.13;4.90;;;17.20;99.90;;;;;;6093368;23;20022;-82
2022/05/11 01:23:06;;;;;;;5.07;4.50;;;17.30;99.90;;;;;;6093424;23;20308;-81
2022/05/11 01:25:32;;;;;;;6.32;4.75;;;17.20;99.90;;;;;;6093712;23;20013;-81
2022/05/11 01:28:11;;;;;;;7.05;4.72;;;17.20;99.90;;;;;;6067690;23;20006;-81
2022/05/11 01:30:45;;;;;;;7.28;4.82;;;17.20;99.90;;;;;;6093680;23;20415;-81
2022/05/11 01:33:17;;;;;;;7.60;5.20;;;17.20;99.90;;;;;;6093740;23;20006;-81
2022/05/11 01:35:49;;;;;;;7.50;5.25;;;17.20;99.90;;;;;;6067700;23;20053;-81
2022/05/11 01:38:23;;;;;;;5.70;5.05;;;17.20;99.90;;;;;;6067708;23;20378;-80
2022/05/11 01:40:49;;;;;;;;;;;17.20;99.90;;;;;;6068294;23;20034;-81
2022/05/11 01:43:20;;;;;;;5.45;4.95;;;17.20;99.90;;;;;;6067693;23;19952;-81
2022/05/11 01:45:46;;;;;;;7.53;4.80;;;17.20;99.90;;;;;;6093237;23;20017;-81
2022/05/11 01:48:11;;;;;;;11.50;5.40;;;17.20;99.90;;;;;;6093296;23;20006;-81
2022/05/11 01:50:37;;;;;;;6.43;5.13;;;17.20;99.90;;;;;;6093267;23;20045;-81
2022/05/11 01:53:05;;;;;;;5.45;4.88;;;17.20;99.90;;;;;;6093244;23;20007;-81
2022/05/11 01:55:31;;;;;;;5.65;5.15;;;17.10;99.90;;;;;;6067394;23;20383;-81
2022/05/11 01:57:57;;;;;;;7.30;5.10;;;17.20;99.90;;;;;;6067674;23;20014;-81
2022/05/11 02:00:23;;;;;;;7.10;4.50;;;17.20;99.90;;;;;;6093204;23;20003;-81
2022/05/11 02:02:49;;;;;;;7.35;5.07;;;17.10;99.90;;;;;;6093479;23;20030;-81
2022/05/11 02:07:59;;;;;;;4.95;4.28;;;17.10;99.90;;;;;;6093295;23;20013;-81
2022/05/11 02:10:26;;;;;;;8.18;5.07;;;17.10;99.90;;;;;;6093170;23;19999;-81
2022/05/11 02:12:52;;;;;;;9.93;5.07;;;17.10;99.90;;;;;;6067490;23;20006;-80
2022/05/11 02:15:19;;;;;;;5.95;4.65;;;17.10;99.90;;;;;;6093465;23;20378;-81
2022/05/11 02:17:45;;;;;;;7.40;4.57;;;17.10;99.90;;;;;;6093008;23;20017;-81
2022/05/11 02:20:13;;;;;;;5.97;4.80;;;17.10;99.90;;;;;;6092950;23;19998;-81
2022/05/11 02:22:40;;;;;;;8.65;4.60;;;17.10;99.90;;;;;;6067473;23;20346;-81
2022/05/11 02:25:06;;;;;;;6.45;4.97;;;17.00;99.90;;;;;;6093268;23;20037;-81
2022/05/11 02:27:32;;;;;;;7.10;4.80;;;17.00;99.90;;;;;;6067512;23;20014;-80
2022/05/11 02:29:58;;;;;;;5.93;4.68;;;17.00;99.90;;;;;;6093300;23;20069;-81
2022/05/11 02:32:24;;;;;;;6.03;4.53;;;17.00;99.90;;;;;;6092965;23;20002;-81
2022/05/11 02:37:34;;;;;;;8.18;5.22;;;17.00;99.90;;;;;;6093342;23;20445;-81
2022/05/11 02:40:00;;;;;;;8.07;4.68;;;17.00;99.90;;;;;;6092865;23;20007;-81
2022/05/11 02:42:25;;;;;;;7.20;4.40;;;17.00;99.90;;;;;;6093244;23;20037;-80
2022/05/11 02:44:52;;;;;;;5.00;4.38;;;17.00;99.90;;;;;;6067212;23;20055;-81
2022/05/11 02:47:18;;;;;;;5.97;4.68;;;17.00;99.90;;;;;;6067313;23;20056;-80
2022/05/11 02:49:45;;;;;;;5.95;4.75;;;17.00;99.90;;;;;;6067383;23;20003;-81
2022/05/11 02:52:14;;;;;;;4.93;4.43;;;17.00;99.90;;;;;;6067615;23;20089;-81
2022/05/11 02:54:40;;;;;;;5.47;4.47;;;17.00;99.90;;;;;;6067303;23;20010;-80
2022/05/11 02:57:06;;;;;;;5.63;4.57;;;17.00;99.90;;;;;;6092612;23;20018;-81
2022/05/11 02:59:32;;;;;;;5.57;4.45;;;16.90;99.90;;;;;;6093113;23;20057;-81
2022/05/11 03:01:57;;;;;;;5.13;4.63;;;16.90;99.90;;;;;;6067271;23;20011;-81
2022/05/11 03:04:24;;;;;;;6.78;4.60;;;16.90;99.90;;;;;;6092698;23;20006;-81
2022/05/11 03:06:50;;;;;;;6.13;4.85;;;16.90;99.90;;;;;;6093102;23;20058;-81
2022/05/11 03:09:17;;;;;;;6.80;4.60;;;16.90;99.90;;;;;;6067109;23;20006;-80
2022/05/11 03:11:44;;;;;;;7.07;4.53;;;16.90;99.90;;;;;;6092715;23;20002;-81
2022/05/11 03:14:12;;;;;;;7.88;5.15;;;16.90;99.90;;;;;;6092673;23;20007;-81
2022/05/11 03:16:38;;;;;;;5.03;4.53;;;16.90;99.90;;;;;;6067046;23;20002;-81
2022/05/11 03:19:05;;;;;;;5.18;4.38;;;16.90;99.90;;;;;;6092585;23;20064;-81
2022/05/11 03:21:31;;;;;;;7.68;4.45;;;16.90;99.90;;;;;;6092621;23;20476;-80
2022/05/11 03:23:57;;;;;;;6.05;4.60;;;16.90;99.90;;;;;;6092509;23;20010;-81
2022/05/11 03:26:23;;;;;;;8.50;4.38;;;16.90;99.90;;;;;;6066971;23;20003;-81
2022/05/11 03:28:49;;;;;;;7.30;4.68;;;16.90;99.90;;;;;;6092533;23;20453;-81
2022/05/11 03:31:16;;;;;;;7.28;4.90;;;16.80;99.90;;;;;;6093037;23;19998;-81
2022/05/11 03:36:26;;;;;;;5.47;4.47;;;16.80;99.90;;;;;;6094112;23;20477;-81
2022/05/11 03:38:52;;;;;;;8.68;4.50;;;16.80;99.90;;;;;;6093996;23;20077;-81
2022/05/11 03:41:18;;;;;;;5.40;4.40;;;16.80;99.90;;;;;;6093728;23;20085;-80
2022/05/11 03:43:44;;;;;;;8.65;4.80;;;16.80;99.90;;;;;;6068043;23;20530;-81
2022/05/11 03:46:10;;;;;;;8.15;4.70;;;16.80;99.90;;;;;;6068281;23;20011;-81
2022/05/11 03:48:37;;;;;;;6.25;4.97;;;16.80;99.90;;;;;;6093502;23;20370;-81
2022/05/11 03:51:04;;;;;;;5.03;4.32;;;16.80;99.90;;;;;;6068494;23;20006;-81
2022/05/11 03:53:32;;;;;;;5.50;4.63;;;16.80;99.90;;;;;;6093577;23;19999;-80
2022/05/11 03:55:58;;;;;;;5.93;4.55;;;16.70;99.90;;;;;;6093234;23;20018;-80
2022/05/11 03:58:24;;;;;;;6.15;4.60;;;16.70;99.90;;;;;;6068211;23;20342;-81
2022/05/11 04:00:49;;;;;;;7.28;4.47;;;16.80;99.90;;;;;;6093497;23;20026;-81
2022/05/11 04:03:15;;;;;;;8.55;4.50;;;16.70;99.90;;;;;;6068137;23;20017;-81
2022/05/11 04:05:41;;;;;;;4.97;4.32;;;16.70;99.90;;;;;;6068032;23;20061;-81
2022/05/11 04:08:07;;;;;;;6.50;4.53;;;16.70;99.90;;;;;;6068080;23;20015;-80
2022/05/11 04:10:33;;;;;;;6.10;4.40;;;16.70;99.90;;;;;;6093793;23;20006;-81
2022/05/11 04:13:03;;;;;;;6.30;4.63;;;16.70;99.90;;;;;;6068012;23;20411;-81
2022/05/11 04:15:30;;;;;;;5.90;4.50;;;16.70;99.90;;;;;;6093874;23;20009;-81
2022/05/11 04:17:56;;;;;;;5.65;4.43;;;16.70;99.90;;;;;;6068019;23;20443;-81
2022/05/11 04:20:22;;;;;;;6.93;4.97;;;16.70;99.90;;;;;;6093858;23;20011;-80
2022/05/11 04:22:48;;;;;;;5.00;4.50;;;16.70;99.90;;;;;;6093530;23;19998;-81
2022/05/11 04:25:15;;;;;;;5.60;4.20;;;16.70;99.90;;;;;;6067972;23;20386;-81
2022/05/11 04:27:43;;;;;;;5.55;4.20;;;16.70;99.90;;;;;;6067923;23;20431;-80
2022/05/11 04:30:09;;;;;;;5.50;4.32;;;16.70;99.90;;;;;;6067953;23;20048;-81
2022/05/11 04:32:35;;;;;;;5.50;4.53;;;16.70;99.90;;;;;;6067969;23;20009;-81
2022/05/11 04:35:01;;;;;;;6.95;4.68;;;16.60;99.90;;;;;;6068021;23;20006;-80
2022/05/11 04:37:27;;;;;;;6.28;4.55;;;16.60;99.90;;;;;;6067962;23;20346;-81
2022/05/11 04:39:53;;;;;;;6.28;4.78;;;16.60;99.90;;;;;;6067992;23;20093;-81
2022/05/11 04:42:19;;;;;;;7.43;5.15;;;16.60;99.90;;;;;;6067681;23;20098;-81
2022/05/11 04:44:44;;;;;;;5.97;4.63;;;16.60;99.90;;;;;;6093590;23;20430;-81
2022/05/11 04:47:13;;;;;;;5.80;4.55;;;16.60;99.90;;;;;;6093981;23;20002;-80
2022/05/11 04:49:40;;;;;;;8.35;4.88;;;16.60;99.90;;;;;;6067953;23;20338;-80
2022/05/11 04:52:09;;;;;;;6.93;4.10;;;16.60;99.90;;;;;;6093552;23;20003;-81
2022/05/11 04:54:37;;;;;;;6.22;5.00;;;16.60;99.90;;;;;;6093340;23;20056;-80
2022/05/11 04:57:03;;;;;;;6.18;4.97;;;16.60;99.90;;;;;;6067714;23;20026;-80
2022/05/11 04:59:28;;;;;;;5.97;4.78;;;16.60;99.90;;;;;;6067825;23;20052;-81
2022/05/11 05:01:54;;;;;;;5.38;4.47;;;16.60;99.90;;;;;;6067935;23;20014;-80
2022/05/11 05:04:20;;;;;;;5.57;4.57;;;16.60;99.90;;;;;;6067693;23;20029;-80
2022/05/11 05:06:46;;;;;;;8.00;4.97;;;16.60;99.90;;;;;;6067769;23;19998;-80
2022/05/11 05:09:12;;;;;;;5.03;4.53;;;16.60;99.90;;;;;;6093548;23;20029;-80
2022/05/11 05:11:37;;;;;;;8.68;5.10;;;16.60;99.90;;;;;;6067926;23;20284;-80
2022/05/11 05:14:06;;;;;;;6.15;4.82;;;16.60;99.90;;;;;;6067916;23;20434;-81
2022/05/11 05:16:33;;;;;;;5.93;5.15;;;16.60;99.90;;;;;;6093452;23;20010;-81
2022/05/11 05:18:59;;;;;;;6.70;5.05;;;16.60;99.90;;;;;;6067862;23;20082;-80
2022/05/11 05:21:24;;;;;;;7.70;4.95;;;16.60;99.90;;;;;;6067830;23;20030;-81
2022/05/11 05:23:50;;;;;;;7.15;4.85;;;16.60;99.90;;;;;;6067767;23;20144;-81
2022/05/11 05:26:16;;;;;;;7.75;4.80;;;16.60;99.90;;;;;;6067792;23;20006;-81
2022/05/11 05:31:29;;;;;;;9.18;5.20;;;16.60;99.90;;;;;;6093758;23;20009;-81
2022/05/11 05:33:59;;;;;;;6.25;4.60;;;16.60;99.90;;;;;;6093319;23;19998;-81
2022/05/11 05:36:30;;;;;;;5.57;4.60;;;16.60;99.90;;;;;;6093708;23;20370;-81
2022/05/11 05:38:58;;;;;;;5.43;4.50;;;16.70;99.90;;;;;;6067735;23;20056;-81
2022/05/11 05:41:25;;;;;;;5.80;4.75;;;16.60;99.90;;;;;;6067660;23;20081;-81
2022/05/11 05:43:51;;;;;;;4.95;4.45;;;16.60;99.90;;;;;;6093168;23;20048;-81
2022/05/11 05:46:17;;;;;;;7.35;4.75;;;16.60;99.90;;;;;;6067666;23;20346;-81
2022/05/11 05:48:43;;;;;;;5.03;4.53;;;16.60;99.90;;;;;;6067738;23;20381;-81
2022/05/11 05:51:11;;;;;;;4.93;4.43;;;16.70;99.90;;;;;;6067757;23;20033;-81
2022/05/11 05:53:39;;;;;;;5.65;4.65;;;16.70;99.90;;;;;;6067497;23;20009;-81
2022/05/11 05:56:04;;;;;;;5.30;4.47;;;16.70;99.90;;;;;;6092623;23;20026;-81
2022/05/11 05:58:30;;;;;;;4.88;4.13;;;16.70;99.90;;;;;;6067753;23;20033;-81
2022/05/11 06:00:56;;;;;;;6.18;4.60;;;16.70;99.90;;;;;;6093278;23;20032;-81
2022/05/11 06:03:24;;;;;;;4.93;4.40;;;16.70;99.90;;;;;;6067627;23;20011;-80
2022/05/11 06:05:50;;;;;;;4.88;4.40;;;16.70;99.90;;;;;;6093085;23;20037;-81
2022/05/11 06:08:16;;;;;;;5.10;4.43;;;16.70;99.90;;;;;;6067852;23;20002;-81
2022/05/11 06:10:42;;;;;;;5.97;4.65;;;16.70;99.90;;;;;;6067783;23;20013;-81
2022/05/11 06:13:09;;;;;;;4.50;4.07;;;16.70;99.90;;;;;;6093578;23;19998;-81
2022/05/11 06:15:38;;;;;;;4.60;4.05;;;16.70;99.90;;;;;;6067755;23;20006;-81
2022/05/11 06:18:05;;;;;;;5.60;4.63;;;16.70;99.90;;;;;;6067715;23;20010;-81
2022/05/11 06:20:31;;;;;;;6.13;4.32;;;16.80;99.90;;;;;;6067696;23;20388;-81
2022/05/11 06:22:57;;;;;;;4.75;4.25;;;16.80;99.90;;;;;;6067635;23;20037;-80
2022/05/11 06:25:23;;;;;;;4.82;4.32;;;16.80;99.90;;;;;;6093080;23;20007;-82
2022/05/11 06:27:50;;;;;;;5.50;4.30;;;16.80;99.90;;;;;;6094435;23;20434;-80
2022/05/11 06:30:17;;;;;;;7.80;4.63;;;17.00;99.90;;;;;;6067762;23;20498;-80
2022/05/11 06:32:43;;;;;;;6.18;4.85;;;17.00;99.90;;;;;;6093173;23;20003;-81
2022/05/11 06:35:09;;;;;;;5.35;4.63;;;17.00;99.90;;;;;;6093208;23;20002;-81
2022/05/11 06:37:42;;;;;;;5.20;4.70;;;17.00;99.90;;;;;;6093210;23;20006;-81
2022/05/11 06:40:09;;;;;;;5.68;4.97;;;17.00;99.90;;;;;;6067611;23;20060;-80
2022/05/11 06:42:35;;;;;;;8.43;5.88;;;17.00;99.90;;;;;;6067662;23;20434;-81
2022/05/11 06:45:00;;;;;;;6.50;4.57;;;17.00;99.90;;;;;;6067548;23;20034;-81
2022/05/11 06:47:26;;;;;;;6.40;4.75;;;17.00;99.90;;;;;;6092923;23;20002;-82
2022/05/11 06:49:52;;;;;;;5.82;3.85;;;17.00;99.90;;;;;;6067307;23;20014;-80
2022/05/11 06:52:17;;;;;;;5.05;4.40;;;17.20;99.90;;;;;;6067406;23;20006;-81
2022/05/11 07:00:15;;;;;;;8.70;4.40;;;17.20;99.90;;;;;;6093110;23;20076;-82
2022/05/11 07:02:40;;;;;;;5.50;4.90;;;17.20;99.90;;;;;;6092646;23;20040;-82
2022/05/11 07:05:07;;;;;;;8.93;5.50;;;17.20;99.90;;;;;;6067127;23;20006;-81
2022/05/11 07:07:33;;;;;;;5.45;4.45;;;17.20;99.90;;;;;;6068381;23;20003;-81
2022/05/11 07:09:59;;;;;;;5.82;4.72;;;17.20;99.90;;;;;;6093736;23;20033;-81
2022/05/11 07:12:32;;;;;;;5.97;4.43;;;17.20;99.90;;;;;;6093747;23;20423;-82
2022/05/11 07:14:59;;;;;;;6.93;4.43;;;17.20;99.90;;;;;;6068414;23;20081;-82
2022/05/11 07:17:42;;;;;;;5.40;4.80;;;17.10;99.90;;;;;;6093686;23;20052;-81
2022/05/11 07:20:15;;;;;;;7.05;4.63;;;17.20;99.90;;;;;;6068392;23;20013;-81
2022/05/11 07:22:42;;;;;;;6.22;4.65;;;17.20;99.90;;;;;;6068348;23;20009;-81
2022/05/11 07:25:10;;;;;;;7.93;4.53;;;17.20;99.90;;;;;;6068196;23;20085;-81
2022/05/11 07:27:36;;;;;;;5.47;4.32;;;17.20;99.90;;;;;;6093703;23;20010;-82
2022/05/11 07:30:05;;;;;;;5.65;4.47;;;17.20;99.90;;;;;;6068372;23;20003;-81
2022/05/11 07:32:31;;;;;;;6.45;4.60;;;17.20;99.90;;;;;;6068453;23;20496;-83
2022/05/11 07:34:56;;;;;;;6.45;4.00;;;17.20;99.90;;;;;;6068331;23;20038;-81
2022/05/11 07:37:22;;;;;;;6.00;4.60;;;17.30;99.90;;;;;;6068320;23;20010;-82
2022/05/11 07:39:48;;;;;;;5.50;4.10;;;17.30;99.90;;;;;;6068290;23;20061;-82
2022/05/11 07:42:14;;;;;;;7.88;4.45;;;17.30;99.90;;;;;;6094018;23;20057;-82
2022/05/11 07:44:40;;;;;;;6.93;4.20;;;17.30;99.90;;;;;;6093918;23;20002;-83
2022/05/11 07:47:06;;;;;;;7.43;4.43;;;17.30;99.90;;;;;;6093743;23;20010;-82
2022/05/11 07:49:32;;;;;;;7.85;4.32;;;17.40;99.90;;;;;;6068119;23;20017;-82
2022/05/11 07:51:57;;;;;;;6.63;4.10;;;17.40;99.90;;;;;;6093573;23;20384;-82
2022/05/11 07:54:23;;;;;;;10.23;4.60;;;17.40;99.90;;;;;;6093582;23;20075;-81
2022/05/11 08:02:20;;;;;;;7.00;4.65;;;17.50;99.90;;;;;;6093973;23;20018;-81
2022/05/11 08:04:45;;;;;;;6.70;4.18;;;17.50;99.90;;;;;;6068035;23;20342;-82
2022/05/11 08:07:14;;;;;;;6.68;4.32;;;17.50;99.90;;;;;;6093662;23;20365;-82
2022/05/11 08:09:41;;;;;;;12.43;4.45;;;17.60;99.90;;;;;;6093934;23;20369;-81
2022/05/11 08:12:07;;;;;;;8.25;4.05;;;17.60;99.90;;;;;;6093567;23;20003;-81
2022/05/11 08:14:33;;;;;;;5.38;3.92;;;17.60;99.90;;;;;;6093898;23;20006;-81
2022/05/11 08:16:59;;;;;;;4.97;4.18;;;17.70;99.90;;;;;;6093700;23;20009;-82
2022/05/11 08:19:26;;;;;;;5.53;4.00;;;17.70;99.90;;;;;;6093569;23;20033;-82
2022/05/11 08:21:54;;;;;;;4.72;3.65;;;17.70;99.90;;;;;;6068045;23;20042;-81
2022/05/11 08:24:21;;;;;;;6.95;3.67;;;17.70;99.90;;;;;;6068041;23;20011;-82
2022/05/11 08:26:50;;;;;;;6.45;4.07;;;17.70;99.90;;;;;;6067982;23;20003;-81
2022/05/11 08:33:19;;;;;;;4.70;3.70;;;17.70;99.90;;;;;;6093553;23;19998;-81
2022/05/11 08:34:48;;;;;;;7.20;3.65;;;17.80;99.90;;;;;;6093640;23;20014;-81
2022/05/11 08:37:14;;;;;;;5.75;4.07;;;17.80;99.90;;;;;;6067906;23;20011;-81
2022/05/11 08:39:40;;;;;;;5.30;4.20;;;17.80;99.90;;;;;;6067989;23;20010;-81
2022/05/11 08:42:07;;;;;;;4.68;3.75;;;17.90;99.90;;;;;;6093490;23;20006;-82
2022/05/11 08:44:35;;;;;;;4.82;3.90;;;17.90;99.90;;;;;;6067861;23;20089;-82
2022/05/11 08:47:04;;;;;;;4.90;3.83;;;18.00;99.90;;;;;;6093493;23;20343;-82
2022/05/11 08:49:35;;;;;;;4.53;3.80;;;18.00;99.90;;;;;;6067846;23;20450;-82
2022/05/11 08:52:04;;;;;;;4.40;4.00;;;18.00;99.90;;;;;;6093590;23;20550;-82
2022/05/11 08:54:47;;;;;;;6.57;3.63;;;18.00;99.90;;;;;;6093639;23;20017;-81
2022/05/11 08:57:17;;;;;;;5.68;3.95;;;18.10;99.90;;;;;;6067708;23;20029;-85
2022/05/11 08:59:44;;;;;;;4.57;3.53;;;18.10;99.90;;;;;;6067887;23;20133;-82
2022/05/11 09:02:12;;;;;;;6.05;4.03;;;18.10;99.90;;;;;;6093449;23;20009;-82
2022/05/11 09:04:52;;;;;;;7.03;4.25;;;18.20;99.90;;;;;;6093459;23;20002;-82
2022/05/11 09:07:17;;;;;;;5.93;4.00;;;18.20;99.90;;;;;;6068003;23;20013;-82
2022/05/11 09:09:43;;;;;;;4.97;3.88;;;18.20;99.90;;;;;;6093409;23;20002;-81
2022/05/11 09:12:11;;;;;;;9.05;4.13;;;18.30;99.90;;;;;;6067905;23;20010;-82
2022/05/11 09:14:41;;;;;;;7.95;3.80;;;18.30;99.90;;;;;;6067842;23;20033;-82
2022/05/11 09:17:21;;;;;;;6.50;3.53;;;18.30;99.90;;;;;;6067847;23;20006;-83
2022/05/11 09:20:07;;;;;;;6.43;3.47;;;18.30;99.90;;;;;;6094096;23;20500;-82
2022/05/11 09:22:37;;;;;;;6.30;3.78;;;18.30;99.90;;;;;;6067899;23;20375;-83
2022/05/11 09:25:18;;;;;;;12.80;4.07;;;18.40;99.90;;;;;;6067739;23;20017;-83
2022/05/11 09:27:44;;;;;;;5.38;4.00;;;18.40;99.90;;;;;;6067853;23;19995;-83
2022/05/11 09:30:22;;;;;;;5.70;3.72;;;18.40;99.90;;;;;;6093247;23;20065;-83
2022/05/11 09:32:52;;;;;;;5.00;3.85;;;18.40;99.90;;;;;;6067611;23;20089;-82
2022/05/11 09:35:26;;;;;;;5.05;3.92;;;18.50;99.90;;;;;;6093357;23;20029;-83
2022/05/11 09:37:59;;;;;;;6.30;3.80;;;18.40;99.90;;;;;;6068079;23;20065;-83
2022/05/11 09:40:30;;;;;;;7.57;4.30;;;18.40;99.90;;;;;;6093468;23;20493;-82
2022/05/11 09:42:55;;;;;;;10.00;4.32;;;18.50;99.90;;;;;;6067750;23;20011;-84
2022/05/11 09:45:42;;;;;;;5.05;3.80;;;18.50;99.90;;;;;;6093295;23;20058;-82
2022/05/11 09:48:16;;;;;;;6.80;3.90;;;18.50;99.90;;;;;;6093589;23;20002;-82
2022/05/11 09:50:43;;;;;;;5.50;3.80;;;18.50;99.90;;;;;;6067793;23;20133;-82
2022/05/11 09:53:29;;;;;;;4.35;3.50;;;18.60;99.90;;;;;;6067587;23;20033;-83
2022/05/11 09:55:55;;;;;;;7.68;4.20;;;18.60;99.90;;;;;;6067379;23;20519;-82
2022/05/11 09:58:32;;;;;;;5.65;3.85;;;18.60;99.90;;;;;;6093607;23;20099;-83
2022/05/11 10:01:16;;;;;;;7.53;4.07;;;18.50;99.90;;;;;;6067669;23;20034;-83
2022/05/11 10:03:55;;;;;;;4.53;3.53;;;18.60;99.90;;;;;;6067841;23;20038;-83
2022/05/11 10:06:23;;;;;;;4.65;3.60;;;18.60;99.90;;;;;;6093304;23;20011;-82
2022/05/11 10:08:51;;;;;;;5.03;3.70;;;18.70;99.90;;;;;;6067689;23;20002;-82
2022/05/11 10:11:24;;;;;;;3.95;3.55;;;18.70;99.90;;;;;;6067723;23;20006;-85
2022/05/11 10:21:50;;;;;;;7.05;3.90;;;18.80;99.90;;;;;;6067732;23;20427;-83
2022/05/11 10:22:38;;;;;;;8.48;3.80;;;18.90;99.90;;;;;;6093262;23;20017;-85
2022/05/11 10:25:16;;;;;;;5.75;3.50;;;18.90;99.90;;;;;;6093007;23;20378;-83
2022/05/11 10:27:59;;;;;;;7.78;3.85;;;18.90;99.90;;;;;;6093097;23;20003;-83
2022/05/11 10:30:28;;;;;;;4.57;3.20;;;18.90;99.90;;;;;;6067545;23;20426;-84
2022/05/11 10:32:54;;;;;;;5.28;3.47;;;18.90;99.90;;;;;;6093000;23;20032;-84
2022/05/11 10:35:38;;;;;;;3.58;3.00;;;19.00;99.90;;;;;;6067536;23;20418;-85
2022/05/11 10:38:41;;;;;;;6.00;3.65;;;19.00;99.90;;;;;;6067788;23;20003;-84
2022/05/11 10:41:47;;;;;;;8.13;3.60;;;19.10;99.90;;;;;;6066960;23;20010;-84
2022/05/11 10:44:22;;;;;;;6.35;3.58;;;19.10;99.90;;;;;;6123856;23;20010;-83
2022/05/11 10:46:53;;;;;;;;;;;19.10;99.90;;;;;;6071831;23;20014;-84
2022/05/11 10:49:43;;;;;;;5.47;3.55;;;19.10;99.90;;;;;;6067438;23;19990;-83
2022/05/11 10:52:49;;;;;;;6.43;3.67;;;19.10;99.90;;;;;;6093029;23;20010;-83
2022/05/11 10:55:53;;;;;;;3.90;3.50;;;19.10;99.90;;;;;;6093327;23;20327;-83
2022/05/11 10:59:01;;;;;;;7.03;3.17;;;19.10;99.90;;;;;;6092655;23;20003;-83
2022/05/11 11:01:58;;;;;;;8.50;3.08;;;19.10;99.90;;;;;;6067161;23;20036;-83
2022/05/11 11:04:54;;;;;;;5.07;3.10;;;19.10;99.90;;;;;;6092492;23;20003;-83
2022/05/11 11:07:26;;;;;;;3.42;2.85;;;19.10;99.90;;;;;;6083148;23;20486;-82
2022/05/11 11:10:16;;;;;;;4.10;3.05;;;19.20;99.90;;;;;;6092769;23;19999;-82
2022/05/11 11:12:51;;;;;;;4.97;3.30;;;19.20;99.90;;;;;;6093159;23;20010;-83
2022/05/11 11:15:20;;;;;;;4.53;3.65;;;19.20;99.90;;;;;;6067343;23;20442;-83
2022/05/11 11:17:46;;;;;;;8.82;2.92;;;19.20;99.90;;;;;;6067185;23;20011;-83
2022/05/11 11:20:17;;;;;;;8.10;3.08;;;19.20;99.90;;;;;;6093088;23;20006;-84
2022/05/11 11:23:13;;;;;;;4.50;3.08;;;19.30;99.90;;;;;;6092803;23;20010;-82
2022/05/11 11:25:58;;;;;;;4.78;3.08;;;19.30;99.90;;;;;;6067077;23;20007;-82
2022/05/11 11:28:56;;;;;;;3.10;2.80;;;19.40;99.90;;;;;;6067173;23;20312;-83
2022/05/11 11:31:26;;;;;;;2.97;2.50;;;19.40;99.90;;;;;;6098324;23;20395;-83
2022/05/11 11:33:54;;;;;;;7.30;3.00;;;19.40;99.90;;;;;;6067087;23;20010;-83
2022/05/11 11:36:28;;;;;;;5.55;2.95;;;19.40;99.90;;;;;;6092714;23;20003;-84
2022/05/11 11:39:01;;;;;;;6.88;3.30;;;19.50;99.90;;;;;;6092514;23;20006;-84
2022/05/11 11:41:40;;;;;;;4.80;2.70;;;19.60;99.90;;;;;;6067977;23;20014;-83
2022/05/11 11:44:30;;;;;;;3.60;2.75;;;19.50;99.90;;;;;;6066963;23;20128;-82
2022/05/11 11:46:57;;;;;;;3.55;2.67;;;19.60;99.90;;;;;;6067006;23;20034;-85
2022/05/11 11:49:26;;;;;;;3.42;2.42;;;19.60;99.90;;;;;;6092651;23;19999;-82
2022/05/11 11:51:53;;;;;;;6.25;2.75;;;19.60;99.90;;;;;;6067236;23;20007;-83
2022/05/11 11:54:37;;;;;;;4.75;3.03;;;19.50;99.90;;;;;;6068413;23;20003;-83
2022/05/11 11:57:23;;;;;;;4.22;2.50;;;19.60;99.90;;;;;;6063362;23;20018;-84
2022/05/11 11:59:51;;;;;;;5.30;3.00;;;19.60;99.90;;;;;;6069956;23;20407;-83
2022/05/11 12:02:20;;;;;;;5.85;2.90;;;19.60;99.90;;;;;;6065156;23;20435;-83
2022/05/11 12:04:54;;;;;;;5.28;2.88;;;19.60;99.90;;;;;;6063355;23;20017;-83
2022/05/11 12:16:10;;;;;;;4.88;2.53;;;19.70;99.90;;;;;;6064919;23;20014;-84
2022/05/11 12:18:39;;;;;;;2.75;2.33;;;19.70;99.90;;;;;;6063401;23;20014;-84
2022/05/11 12:21:26;;;;;;;4.07;2.22;;;19.70;99.90;;;;;;6064779;23;20065;-83
2022/05/11 12:23:52;;;;;;;4.78;2.67;;;19.80;99.90;;;;;;6063469;23;20039;-80
2022/05/11 12:26:33;;;;;;;3.22;2.50;;;19.90;99.90;;;;;;6064777;23;20007;-79
2022/05/11 12:32:07;;;;;;;5.22;2.55;;;19.90;99.90;;;;;;6065175;23;20014;-84
2022/05/11 12:34:43;;;;;;;5.00;2.60;;;20.00;99.90;;;;;;6063971;23;20430;-81
2022/05/11 12:37:31;;;;;;;5.70;2.40;;;20.10;99.90;;;;;;6063312;23;20122;-84
2022/05/11 12:40:04;;;;;;;3.22;2.33;;;20.20;99.90;;;;;;6063292;23;20470;-83
2022/05/11 12:42:40;;;;;;;5.78;2.40;;;20.20;99.90;;;;;;6065205;23;20003;-83
2022/05/11 12:45:10;;;;;;;6.65;2.10;;;20.30;99.90;;;;;;6063241;23;20011;-83
2022/05/11 12:47:41;;;;;;;8.02;2.30;;;20.30;99.90;;;;;;6063929;23;20308;-82
2022/05/11 12:50:12;;;;;;;2.60;2.05;;;20.50;99.90;;;;;;6063321;23;20003;-84
2022/05/11 12:52:38;;;;;;;3.33;2.00;;;20.60;99.90;;;;;;6063235;23;20003;-85
2022/05/11 12:55:04;;;;;;;4.18;2.17;;;20.70;99.90;;;;;;6064795;23;20015;-84
2022/05/11 12:57:42;;;;;;;5.10;2.15;;;20.70;99.90;;;;;;6062986;23;20019;-85
2022/05/11 13:00:19;;;;;;;3.90;1.92;;;20.80;99.90;;;;;;6065501;23;20450;-83
2022/05/11 13:02:45;;;;;;;5.28;1.98;;;21.00;99.90;;;;;;6063251;23;20086;-82
2022/05/11 13:05:16;;;;;;;5.38;2.13;;;21.00;99.90;;;;;;6064432;23;20003;-84
2022/05/11 13:08:02;;;;;;;3.17;1.67;;;21.10;99.90;;;;;;6063345;23;20010;-81
2022/05/11 13:10:32;;;;;;;2.60;2.00;;;21.20;99.90;;;;;;6063341;23;20009;-84
2022/05/11 13:13:00;;;;;;;2.95;1.92;;;21.30;99.90;;;;;;6063343;23;20331;-84
2022/05/11 13:15:30;;;;;;;4.15;1.75;;;21.30;99.90;;;;;;6063319;23;20407;-84
2022/05/11 13:17:55;;;;;;;3.55;1.83;;;21.40;99.90;;;;;;6064754;23;20003;-81
2022/05/11 13:20:24;;;;;;;5.50;2.00;;;21.40;99.90;;;;;;6063102;23;20010;-84
2022/05/11 13:22:51;;;;;;;3.67;2.00;;;21.50;99.90;;;;;;6064759;23;20029;-83
2022/05/11 13:25:50;;;;;;;5.32;1.63;;;21.50;99.80;;;;;;6063054;23;20085;-84
2022/05/11 13:28:28;;;;;;;4.22;2.03;;;21.60;99.40;;;;;;6064659;23;19999;-83
2022/05/11 13:31:02;;;;;;;3.03;1.80;;;21.70;99.20;;;;;;6063152;23;20338;-84
2022/05/11 13:33:34;;;;;;;4.90;1.83;;;21.70;99.50;;;;;;6063118;23;20321;-81
2022/05/11 13:36:38;;;;;;;2.85;1.90;;;21.60;99.30;;;;;;6063037;23;20041;-84
2022/05/11 13:39:27;;;;;;;3.60;1.75;;;21.50;99.30;;;;;;6065250;23;20021;-84
2022/05/11 13:41:53;;;;;;;4.32;1.80;;;21.50;99.80;;;;;;6064661;23;20462;-84
2022/05/11 13:44:38;;;;;;;4.82;1.98;;;21.50;99.40;;;;;;6062991;23;20389;-84
2022/05/11 13:50:27;;;;;;;2.42;1.95;;;21.50;99.60;;;;;;6065003;23;20017;-85